Time;durP1;ratioP1;P1;durP2;ratioP2;P2;SDS_P1;SDS_P2;PMS_P1;PMS_P2;Temp;Humidity;BMP_temperature;BMP_pressure;BME280_temperature;BME280_humidity;BME280_pressure;Samples;Min_cycle;Max_cycle;Signal;HPM_P1;HPM_P2
2022/03/13 00:00:37;;;;;;;17.25;8.45;;;;;;;11.16;57.78;101393.31;5035378;28;20110;-57
2022/03/13 00:03:04;;;;;;;12.55;8.45;;;;;;;11.11;57.92;101385.47;5035244;28;20100;-57
2022/03/13 00:05:30;;;;;;;13.77;7.70;;;;;;;11.16;58.35;101393.31;5035240;28;20029;-58
2022/03/13 00:07:56;;;;;;;11.35;7.15;;;;;;;11.22;57.80;101387.19;5035032;28;20034;-58
2022/03/13 00:10:27;;;;;;;10.38;6.90;;;;;;;11.23;57.71;101389.78;5034989;28;20116;-58
2022/03/13 00:12:53;;;;;;;11.30;7.15;;;;;;;11.18;58.14;101391.56;5034959;28;20026;-58
2022/03/13 00:15:31;;;;;;;12.00;7.53;;;;;;;11.12;58.66;101392.47;5035021;28;20033;-58
2022/03/13 00:17:59;;;;;;;10.85;7.93;;;;;;;11.14;58.49;101389.84;5034988;28;20108;-57
2022/03/13 00:20:27;;;;;;;12.20;7.70;;;;;;;11.11;58.75;101392.47;5034774;28;20041;-58
2022/03/13 00:22:54;;;;;;;12.43;8.07;;;;;;;11.02;58.53;101382.94;5035071;28;20341;-58
2022/03/13 00:25:20;;;;;;;11.50;7.85;;;;;;;11.04;58.76;101383.81;5035074;28;20034;-58
2022/03/13 00:27:45;;;;;;;11.32;8.10;;;;;;;11.02;58.74;101387.31;5034865;28;20121;-58
2022/03/13 00:30:12;;;;;;;13.18;7.78;;;;;;;11.01;58.66;101381.19;5034780;28;20025;-57
2022/03/13 00:32:37;;;;;;;13.85;8.32;;;;;;;11.04;58.55;101370.72;5034711;28;20029;-58
2022/03/13 00:35:03;;;;;;;12.20;7.40;;;;;;;11.03;58.45;101366.34;5037825;28;20103;-58
2022/03/13 00:37:29;;;;;;;10.85;7.57;;;;;;;11.00;58.79;101360.25;5040972;28;20033;-58
2022/03/13 00:39:56;;;;;;;13.60;7.90;;;;;;;11.00;58.33;101361.13;5041334;28;20356;-58
2022/03/13 00:42:23;;;;;;;13.27;7.85;;;;;;;10.98;58.38;101351.53;5041375;28;20025;-57
2022/03/13 00:44:49;;;;;;;13.65;8.18;;;;;;;10.98;58.49;101351.53;5041251;28;20029;-58
2022/03/13 00:47:15;;;;;;;10.05;7.70;;;;;;;10.95;58.30;101362.03;5040859;28;20037;-58
2022/03/13 00:49:40;;;;;;;11.55;8.23;;;;;;;10.91;58.91;101366.41;5041343;28;20448;-58
2022/03/13 00:52:06;;;;;;;11.48;7.88;;;;;;;10.86;58.85;101367.34;5040799;28;20074;-58
2022/03/13 00:54:33;;;;;;;13.02;8.43;;;;;;;10.82;59.56;101354.25;5041191;28;20029;-58
2022/03/13 00:56:58;;;;;;;11.88;8.38;;;;;;;10.76;59.29;101361.28;5041186;28;20082;-58
2022/03/13 00:59:24;;;;;;;11.52;7.80;;;;;;;10.76;59.37;101356.03;5041185;28;20124;-57
2022/03/13 01:01:49;;;;;;;13.30;8.63;;;;;;;10.76;59.50;101353.41;5041330;28;20456;-57
2022/03/13 01:04:16;;;;;;;12.80;8.30;;;;;;;10.76;59.76;101345.56;5040393;28;20179;-58
2022/03/13 01:06:42;;;;;;;11.23;8.02;;;;;;;10.70;59.64;101341.25;5040953;28;20021;-57
2022/03/13 01:09:07;;;;;;;12.43;8.82;;;;;;;10.71;59.78;101340.38;5040999;28;20025;-57
2022/03/13 01:11:32;;;;;;;10.82;7.72;;;;;;;10.69;59.92;101342.13;5040698;28;20037;-57
2022/03/13 01:13:58;;;;;;;11.35;7.85;;;;;;;10.70;59.94;101341.25;5040999;28;20035;-57
2022/03/13 01:16:27;;;;;;;13.07;8.50;;;;;;;10.65;60.30;101334.31;5041147;28;20355;-57
2022/03/13 01:19:01;;;;;;;11.32;8.27;;;;;;;10.59;60.54;101337.81;5040479;28;20052;-58
2022/03/13 01:21:28;;;;;;;11.98;8.23;;;;;;;10.55;60.47;101328.25;5040757;28;20359;-58
2022/03/13 01:23:59;;;;;;;12.43;8.70;;;;;;;10.54;60.69;101323.03;5040956;28;20037;-60
2022/03/13 01:26:24;;;;;;;12.57;8.55;;;;;;;10.45;60.98;101323.94;5040976;28;20041;-58
2022/03/13 01:28:57;;;;;;;13.07;8.03;;;;;;;10.36;61.34;101313.53;5041133;28;20333;-58
2022/03/13 01:31:32;;;;;;;12.98;8.25;;;;;;;10.35;61.53;101312.66;5040660;28;20045;-59
2022/03/13 01:33:59;;;;;;;11.02;7.90;;;;;;;10.34;61.94;101315.28;5040626;28;20352;-64
2022/03/13 01:36:26;;;;;;;10.93;7.93;;;;;;;10.30;61.75;101313.56;5040759;28;20029;-58
2022/03/13 01:38:56;;;;;;;10.88;7.05;;;;;;;10.25;62.13;101307.47;5039922;28;20029;-58
2022/03/13 01:41:27;;;;;;;14.48;7.50;;;;;;;10.28;62.15;101310.06;5040829;28;20348;-53
2022/03/13 01:43:54;;;;;;;10.68;7.53;;;;;;;10.21;62.24;101300.53;5040596;28;20494;-58
2022/03/13 01:46:19;;;;;;;9.52;7.20;;;;;;;10.18;62.69;101297.91;5038634;28;20037;-58
2022/03/13 01:49:10;;;;;;;9.23;7.10;;;;;;;10.16;62.60;101289.19;5037682;28;20045;-57
2022/03/13 01:51:35;;;;;;;11.27;7.45;;;;;;;10.08;62.88;101287.47;5037613;28;20045;-58
2022/03/13 01:54:07;;;;;;;9.35;6.88;;;;;;;10.10;63.03;101284.84;5037493;28;20034;-58
2022/03/13 01:56:34;;;;;;;9.65;6.45;;;;;;;10.08;63.21;101284.84;5037508;28;20026;-58
2022/03/13 01:59:01;;;;;;;12.48;7.10;;;;;;;10.03;63.44;101289.25;5037745;28;20056;-58
2022/03/13 02:01:27;;;;;;;11.40;6.75;;;;;;;10.01;63.67;101291.00;5037397;28;20038;-57
2022/03/13 02:03:53;;;;;;;9.32;6.53;;;;;;;9.95;63.54;101275.31;5037327;28;20063;-58
2022/03/13 02:06:26;;;;;;;11.32;6.72;;;;;;;9.99;63.76;101292.75;5037347;28;20045;-58
2022/03/13 02:08:53;;;;;;;9.75;6.53;;;;;;;9.97;63.74;101288.38;5037241;28;20109;-58
2022/03/13 02:11:21;;;;;;;9.45;7.05;;;;;;;9.96;63.91;101279.66;5037055;28;20048;-58
2022/03/13 02:13:49;;;;;;;10.75;7.15;;;;;;;10.00;63.81;101281.41;5037083;28;20073;-58
2022/03/13 02:16:15;;;;;;;10.30;6.55;;;;;;;9.99;63.94;101276.19;5037128;28;20173;-57
2022/03/13 02:18:41;;;;;;;11.52;7.45;;;;;;;9.95;64.03;101275.31;5037238;28;20077;-58
2022/03/13 02:21:08;;;;;;;10.73;7.60;;;;;;;9.98;64.02;101277.06;5037089;28;20088;-62
2022/03/13 02:23:34;;;;;;;12.02;8.40;;;;;;;9.93;64.13;101277.06;5036998;28;20104;-58
2022/03/13 02:26:02;;;;;;;16.00;9.18;;;;;;;9.90;64.54;101274.47;5037324;28;20083;-58
2022/03/13 02:28:31;;;;;;;12.13;8.80;;;;;;;9.91;64.32;101284.03;5036870;28;20045;-58
2022/03/13 02:31:01;;;;;;;15.13;9.23;;;;;;;9.88;64.26;101280.56;5036957;28;20029;-58
2022/03/13 02:33:27;;;;;;;13.40;9.52;;;;;;;9.90;64.10;101282.28;5036707;28;20036;-58
2022/03/13 02:35:55;;;;;;;13.13;9.73;;;;;;;9.84;64.42;101284.09;5036877;28;20034;-58
2022/03/13 02:38:20;;;;;;;17.90;10.15;;;;;;;9.80;64.67;101283.22;5036591;28;20041;-58
2022/03/13 02:40:46;;;;;;;14.43;10.07;;;;;;;9.86;64.41;101277.97;5036758;28;20036;-58
2022/03/13 02:43:11;;;;;;;15.60;10.52;;;;;;;9.85;64.75;101273.63;5036637;28;20048;-58
2022/03/13 02:45:38;;;;;;;15.95;10.48;;;;;;;9.89;64.32;101269.22;5036643;28;20065;-58
2022/03/13 02:48:06;;;;;;;13.93;9.25;;;;;;;9.87;64.96;101271.84;5036567;28;20427;-58
2022/03/13 02:50:32;;;;;;;13.98;10.00;;;;;;;9.89;64.85;101271.84;5036562;28;20030;-58
2022/03/13 02:52:57;;;;;;;14.23;10.23;;;;;;;9.92;65.18;101275.31;5036156;28;20440;-58
2022/03/13 02:55:22;;;;;;;14.52;10.40;;;;;;;9.89;67.06;101275.31;5036817;28;20044;-58
2022/03/13 02:57:48;;;;;;;14.88;10.43;;;;;;;9.91;66.26;101273.59;5035547;28;20099;-58
2022/03/13 03:00:15;;;;;;;16.27;10.50;;;;;;;9.90;66.88;101261.38;5036181;28;20065;-58
2022/03/13 03:02:41;;;;;;;17.85;10.63;;;;;;;9.91;67.13;101264.88;5036590;28;20095;-58
2022/03/13 03:05:08;;;;;;;16.58;10.73;;;;;;;9.94;66.88;101257.03;5036325;28;20025;-58
2022/03/13 03:07:34;;;;;;;17.67;11.57;;;;;;;9.95;67.28;101264.00;5035272;28;20045;-58
2022/03/13 03:10:00;;;;;;;16.17;11.63;;;;;;;9.88;67.53;101260.53;5035973;28;20128;-58
2022/03/13 03:12:27;;;;;;;18.23;12.25;;;;;;;9.90;67.18;101255.28;5035969;28;20037;-58
2022/03/13 03:14:52;;;;;;;17.77;11.90;;;;;;;9.85;68.31;101246.63;5036179;28;20026;-58
2022/03/13 03:17:17;;;;;;;16.15;11.85;;;;;;;9.84;68.48;101247.50;5036129;28;20117;-58
2022/03/13 03:19:43;;;;;;;17.35;11.93;;;;;;;9.83;69.05;101244.00;5036322;28;20049;-58
2022/03/13 03:22:08;;;;;;;19.27;11.85;;;;;;;9.86;68.39;101253.59;5035883;28;21100;-58
2022/03/13 03:24:34;;;;;;;16.80;11.90;;;;;;;9.83;69.61;101249.22;5036361;28;20025;-58
2022/03/13 03:26:59;;;;;;;16.88;11.95;;;;;;;9.81;70.01;101250.97;5035792;28;20065;-58
2022/03/13 03:29:26;;;;;;;17.38;12.50;;;;;;;9.83;69.11;101249.22;5035992;28;20352;-58
2022/03/13 03:31:52;;;;;;;18.17;12.27;;;;;;;9.75;69.98;101246.63;5035707;28;20044;-58
2022/03/13 03:34:20;;;;;;;17.48;12.40;;;;;;;9.80;69.64;101243.16;5035752;28;20033;-59
2022/03/13 03:36:51;;;;;;;17.48;12.30;;;;;;;9.81;69.49;101244.88;5035620;28;20155;-58
2022/03/13 03:39:19;;;;;;;18.48;12.77;;;;;;;9.73;70.10;101242.28;5035499;28;20049;-58
2022/03/13 03:41:46;;;;;;;18.38;13.05;;;;;;;9.74;70.21;101244.03;5035569;28;20143;-58
2022/03/13 03:44:12;;;;;;;19.08;13.20;;;;;;;9.75;70.31;101243.16;5035618;28;20099;-58
2022/03/13 03:46:39;;;;;;;22.35;13.73;;;;;;;9.74;70.46;101252.72;5035466;28;20033;-58
2022/03/13 03:49:05;;;;;;;20.15;13.45;;;;;;;9.70;70.23;101251.00;5035350;28;20443;-58
2022/03/13 03:51:30;;;;;;;23.42;14.15;;;;;;;9.69;70.65;101246.69;5035235;28;20041;-58
2022/03/13 03:53:56;;;;;;;20.63;13.80;;;;;;;9.63;69.90;101237.97;5035629;28;20030;-58
2022/03/13 03:56:21;;;;;;;20.48;14.10;;;;;;;9.65;69.70;101236.22;5035460;28;20438;-58
2022/03/13 03:58:48;;;;;;;22.05;14.90;;;;;;;9.64;69.51;101237.09;5035014;28;20423;-58
2022/03/13 04:01:14;;;;;;;20.42;14.65;;;;;;;9.65;69.86;101244.94;5035328;28;20037;-58
2022/03/13 04:03:39;;;;;;;22.50;15.10;;;;;;;9.62;69.38;101246.69;5035073;28;20040;-58
2022/03/13 04:06:04;;;;;;;21.27;15.43;;;;;;;9.64;69.79;101239.72;5034983;28;20048;-58
2022/03/13 04:08:30;;;;;;;20.95;15.20;;;;;;;9.60;68.92;101231.00;5035537;28;20056;-58
2022/03/13 04:10:55;;;;;;;22.55;15.18;;;;;;;9.62;69.59;101236.25;5034475;28;20033;-58
2022/03/13 04:13:20;;;;;;;25.10;16.33;;;;;;;9.56;68.87;101233.63;5034870;28;20036;-58
2022/03/13 04:15:46;;;;;;;24.02;15.27;;;;;;;9.53;69.25;101229.28;5035014;28;20037;-58
2022/03/13 04:18:12;;;;;;;22.92;16.27;;;;;;;9.53;68.83;101233.63;5034763;28;20021;-59
2022/03/13 04:20:37;;;;;;;25.38;16.60;;;;;;;9.51;68.78;101235.41;5034972;28;20096;-58
2022/03/13 04:23:02;;;;;;;27.42;17.30;;;;;;;9.46;69.16;101229.31;5034813;28;20444;-58
2022/03/13 04:25:28;;;;;;;27.88;16.65;;;;;;;9.46;67.65;101239.78;5034703;28;20033;-58
2022/03/13 04:27:55;;;;;;;25.30;17.42;;;;;;;9.30;68.29;101221.53;5034816;28;20060;-58
2022/03/13 04:30:21;;;;;;;27.20;17.83;;;;;;;9.36;68.32;101241.50;5035166;28;20136;-58
2022/03/13 04:32:47;;;;;;;28.13;17.45;;;;;;;9.36;68.70;101236.28;5034812;28;20471;-58
2022/03/13 04:35:12;;;;;;;26.70;17.80;;;;;;;9.30;69.44;101236.31;5034736;28;20026;-58
2022/03/13 04:37:37;;;;;;;27.98;17.95;;;;;;;9.30;69.87;101238.94;5034937;28;20032;-58
2022/03/13 04:40:03;;;;;;;28.42;18.00;;;;;;;9.29;70.87;101235.44;5035118;28;20443;-58
2022/03/13 04:42:28;;;;;;;27.45;18.27;;;;;;;9.24;71.77;101231.97;5034877;28;20030;-58
2022/03/13 04:44:53;;;;;;;30.63;19.92;;;;;;;9.19;72.19;101240.66;5034816;28;20352;-63
2022/03/13 04:47:19;;;;;;;26.52;18.38;;;;;;;9.16;73.41;101232.88;5034792;28;20030;-58
2022/03/13 04:49:44;;;;;;;29.73;19.67;;;;;;;9.10;73.73;101236.34;5034895;28;20037;-58
2022/03/13 04:52:09;;;;;;;28.27;19.30;;;;;;;9.01;74.04;101238.94;5034821;28;20033;-58
2022/03/13 04:54:34;;;;;;;31.15;20.13;;;;;;;8.99;73.99;101238.13;5034498;28;20451;-58
2022/03/13 04:57:00;;;;;;;31.60;19.73;;;;;;;8.88;74.12;101240.69;5034874;28;20033;-58
2022/03/13 04:59:25;;;;;;;31.13;20.35;;;;;;;8.78;74.28;101240.72;5034968;28;20121;-58
2022/03/13 05:01:52;;;;;;;27.20;18.70;;;;;;;8.71;74.48;101245.06;5034603;28;20356;-58
2022/03/13 05:04:17;;;;;;;29.98;20.20;;;;;;;8.72;74.83;101242.44;5034398;28;20090;-59
2022/03/13 05:06:43;;;;;;;30.50;19.95;;;;;;;8.66;74.24;101231.13;5034330;28;20042;-58
2022/03/13 05:09:08;;;;;;;29.40;19.17;;;;;;;8.66;74.41;101234.59;5034503;28;20061;-58
2022/03/13 05:11:34;;;;;;;30.05;19.55;;;;;;;8.63;74.27;101236.38;5034578;28;20056;-58
2022/03/13 05:14:00;;;;;;;29.45;18.73;;;;;;;8.57;73.71;101223.31;5034324;28;20336;-58
2022/03/13 05:16:25;;;;;;;28.67;18.95;;;;;;;8.52;74.09;101227.63;5034635;28;20033;-58
2022/03/13 05:18:50;;;;;;;30.08;19.33;;;;;;;8.51;73.41;101225.91;5034171;28;20464;-59
2022/03/13 05:21:17;;;;;;;29.35;19.42;;;;;;;8.51;73.41;101226.75;5035018;28;20036;-58
2022/03/13 05:23:43;;;;;;;30.00;18.92;;;;;;;8.48;73.27;101218.09;5037862;28;20435;-60
2022/03/13 05:26:09;;;;;;;29.80;19.50;;;;;;;8.47;73.62;101221.56;5037982;28;20025;-58
2022/03/13 05:28:35;;;;;;;29.23;18.38;;;;;;;8.53;73.44;101232.84;5038149;28;20104;-58
2022/03/13 05:31:01;;;;;;;26.73;17.52;;;;;;;8.57;72.91;101233.75;5038174;28;20033;-58
2022/03/13 05:33:26;;;;;;;29.17;18.30;;;;;;;8.58;73.85;101227.66;5037848;28;20029;-58
2022/03/13 05:35:51;;;;;;;28.08;18.60;;;;;;;8.66;72.00;101231.13;5037822;28;20056;-58
2022/03/13 05:38:17;;;;;;;29.60;18.35;;;;;;;8.64;71.56;101232.88;5038187;28;20033;-57
2022/03/13 05:40:42;;;;;;;26.98;18.13;;;;;;;8.57;70.91;101226.78;5038032;28;20041;-58
2022/03/13 05:43:09;;;;;;;23.42;16.45;;;;;;;8.59;71.24;101224.19;5037974;28;20037;-58
2022/03/13 05:45:36;;;;;;;24.02;17.38;;;;;;;8.60;71.10;101226.78;5037935;28;20401;-58
2022/03/13 05:48:07;;;;;;;25.40;18.13;;;;;;;8.62;70.84;101230.28;5037323;28;20041;-57
2022/03/13 05:50:32;;;;;;;27.97;17.53;;;;;;;8.56;70.78;101240.69;5037871;28;20048;-58
2022/03/13 05:52:58;;;;;;;28.00;16.67;;;;;;;8.57;71.21;101232.00;5037906;28;20287;-58
2022/03/13 05:55:25;;;;;;;25.98;17.73;;;;;;;8.56;71.22;101239.81;5037819;28;20034;-57
2022/03/13 05:57:54;;;;;;;27.38;16.42;;;;;;;8.53;70.52;101240.69;5037974;28;20061;-57
2022/03/13 06:00:21;;;;;;;27.00;17.98;;;;;;;8.55;70.45;101243.28;5037554;28;20037;-57
2022/03/13 06:02:47;;;;;;;25.00;16.73;;;;;;;8.56;70.38;101237.22;5037408;28;20037;-58
2022/03/13 06:05:14;;;;;;;25.75;16.92;;;;;;;8.57;69.88;101237.22;5037107;28;20033;-57
2022/03/13 06:07:40;;;;;;;26.55;16.98;;;;;;;8.55;70.05;101236.34;5037428;28;20444;-57
2022/03/13 06:10:06;;;;;;;24.42;16.63;;;;;;;8.57;69.35;101242.44;5037546;28;20035;-57
2022/03/13 06:12:33;;;;;;;25.73;16.52;;;;;;;8.58;69.32;101238.97;5036798;28;20104;-58
2022/03/13 06:14:59;;;;;;;25.83;16.73;;;;;;;8.60;69.19;101247.66;5037444;28;20037;-58
2022/03/13 06:17:25;;;;;;;23.63;16.17;;;;;;;8.63;69.24;101241.59;5037150;28;20360;-57
2022/03/13 06:19:51;;;;;;;22.42;15.98;;;;;;;8.60;68.52;101242.44;5037718;28;20079;-58
2022/03/13 06:22:21;;;;;;;24.17;16.58;;;;;;;8.57;68.32;101244.19;5037056;28;20033;-58
2022/03/13 06:24:46;;;;;;;26.27;16.73;;;;;;;8.60;68.49;101250.28;5036983;28;20030;-57
2022/03/13 06:27:11;;;;;;;25.88;15.82;;;;;;;8.64;68.47;101244.19;5036984;28;20340;-58
2022/03/13 06:29:38;;;;;;;23.83;15.93;;;;;;;8.63;68.02;101246.81;5036742;28;20056;-58
2022/03/13 06:32:04;;;;;;;22.80;16.33;;;;;;;8.60;67.97;101247.66;5036765;28;20440;-58
2022/03/13 06:34:29;;;;;;;29.30;16.65;;;;;;;8.65;68.53;101245.94;5037025;28;20037;-58
2022/03/13 06:36:54;;;;;;;23.38;16.20;;;;;;;8.59;67.91;101250.25;5036608;28;20391;-57
2022/03/13 06:39:20;;;;;;;24.88;16.25;;;;;;;8.57;68.00;101244.19;5036723;28;20340;-58
2022/03/13 06:41:45;;;;;;;25.13;16.73;;;;;;;8.60;67.99;101252.88;5036895;28;20083;-58
2022/03/13 06:44:10;;;;;;;23.80;16.20;;;;;;;8.64;67.37;101246.81;5036721;28;20037;-57
2022/03/13 06:46:35;;;;;;;28.45;16.48;;;;;;;8.57;67.91;101237.22;5036543;28;20047;-58
2022/03/13 06:49:05;;;;;;;24.80;16.23;;;;;;;8.59;67.89;101240.69;5036240;28;20025;-62
2022/03/13 06:51:31;;;;;;;25.35;16.33;;;;;;;8.68;67.79;101239.81;5036765;28;20108;-58
2022/03/13 06:53:57;;;;;;;26.00;16.50;;;;;;;8.74;67.65;101242.44;5036429;28;20033;-58
2022/03/13 06:56:22;;;;;;;24.42;16.48;;;;;;;8.79;67.29;101245.06;5036680;28;20025;-58
2022/03/13 06:58:47;;;;;;;24.10;15.50;;;;;;;8.85;67.19;101247.66;5036605;28;20025;-59
2022/03/13 07:01:12;;;;;;;26.60;16.48;;;;;;;8.89;66.90;101244.19;5036385;28;20494;-59
2022/03/13 07:03:38;;;;;;;23.75;16.23;;;;;;;8.83;66.33;101228.56;5036243;28;20040;-57
2022/03/13 07:06:04;;;;;;;23.27;15.32;;;;;;;8.95;65.94;101244.19;5036650;28;20030;-58
2022/03/13 07:08:32;;;;;;;23.55;15.38;;;;;;;8.97;65.87;101245.06;5036166;28;20033;-58
2022/03/13 07:10:58;;;;;;;22.05;15.32;;;;;;;8.97;65.77;101242.47;5036327;28;20029;-58
2022/03/13 07:13:23;;;;;;;21.23;15.23;;;;;;;8.98;65.46;101228.53;5036079;28;20109;-59
2022/03/13 07:15:49;;;;;;;25.02;15.18;;;;;;;9.00;65.09;101239.84;5036288;28;20496;-58
2022/03/13 07:18:14;;;;;;;24.08;15.90;;;;;;;8.98;65.96;101242.47;5035477;28;20029;-57
2022/03/13 07:20:40;;;;;;;22.33;15.15;;;;;;;8.98;66.03;101250.28;5034665;28;20128;-58
2022/03/13 07:23:05;;;;;;;23.88;15.05;;;;;;;9.00;64.92;101250.28;5035836;28;20025;-58
2022/03/13 07:25:30;;;;;;;23.02;15.48;;;;;;;8.99;65.03;101238.13;5035812;28;20045;-58
2022/03/13 07:27:55;;;;;;;22.55;15.23;;;;;;;8.89;65.27;101220.69;5035930;28;20033;-58
2022/03/13 07:30:21;;;;;;;25.63;15.77;;;;;;;8.97;65.32;101229.41;5035621;28;20072;-58
2022/03/13 07:32:46;;;;;;;23.60;15.68;;;;;;;8.97;65.87;101235.50;5035968;28;20021;-57
2022/03/13 07:35:12;;;;;;;22.13;15.77;;;;;;;9.03;65.91;101237.22;5035755;28;20485;-58
2022/03/13 07:37:38;;;;;;;23.80;15.80;;;;;;;9.05;64.95;101244.19;5035526;28;20030;-58
2022/03/13 07:40:05;;;;;;;24.75;15.55;;;;;;;9.07;65.13;101241.56;5035805;28;20095;-58
2022/03/13 07:42:30;;;;;;;22.20;14.60;;;;;;;9.17;64.89;101234.63;5035616;28;20124;-58
2022/03/13 07:44:55;;;;;;;23.38;15.68;;;;;;;9.23;64.47;101237.19;5034736;28;20108;-59
2022/03/13 07:47:21;;;;;;;24.20;15.43;;;;;;;9.28;64.40;101228.50;5035449;28;20044;-59
2022/03/13 07:49:46;;;;;;;24.65;15.98;;;;;;;9.34;64.68;101225.00;5035395;28;20033;-58
2022/03/13 07:52:12;;;;;;;24.50;15.40;;;;;;;9.39;64.24;101236.28;5035420;28;20045;-59
2022/03/13 07:54:37;;;;;;;22.15;15.35;;;;;;;9.41;64.00;101226.72;5035382;28;20425;-58
2022/03/13 07:57:03;;;;;;;25.50;15.68;;;;;;;9.42;63.74;101224.09;5035403;28;20033;-58
2022/03/13 07:59:28;;;;;;;23.73;15.68;;;;;;;9.34;63.71;101211.94;5035126;28;20044;-58
2022/03/13 08:01:54;;;;;;;23.38;15.95;;;;;;;9.39;63.68;101236.28;5035087;28;20037;-58
2022/03/13 08:04:19;;;;;;;21.25;14.88;;;;;;;9.48;64.27;101220.59;5035078;28;20029;-58
2022/03/13 08:06:45;;;;;;;24.67;15.85;;;;;;;9.56;62.92;101229.28;5035193;28;20033;-58
2022/03/13 08:09:10;;;;;;;25.88;15.70;;;;;;;9.65;62.73;101225.78;5035148;28;20345;-58
2022/03/13 08:11:36;;;;;;;23.40;16.05;;;;;;;9.71;62.64;101224.00;5035423;28;20104;-58
2022/03/13 08:14:07;;;;;;;26.35;15.02;;;;;;;9.83;62.53;101230.94;5034973;28;20025;-59
2022/03/13 08:16:33;;;;;;;23.77;15.20;;;;;;;9.93;61.93;101224.78;5034733;28;20037;-58
2022/03/13 08:18:59;;;;;;;27.23;15.55;;;;;;;10.00;61.00;101229.13;5035048;28;20333;-58
2022/03/13 08:21:24;;;;;;;21.35;15.40;;;;;;;10.06;61.61;101221.22;5035420;28;20099;-59
2022/03/13 08:23:50;;;;;;;27.17;15.68;;;;;;;10.18;61.07;101224.66;5035264;28;20057;-59
2022/03/13 08:26:15;;;;;;;23.40;16.02;;;;;;;10.25;60.83;101227.25;5034521;28;20034;-61
2022/03/13 08:28:41;;;;;;;22.23;15.05;;;;;;;10.35;60.68;101220.22;5034787;28;20409;-60
2022/03/13 08:31:07;;;;;;;22.90;15.52;;;;;;;10.45;60.22;101228.00;5034770;28;20087;-59
2022/03/13 08:33:33;;;;;;;23.52;16.02;;;;;;;10.68;59.65;101222.59;5034527;28;20439;-59
2022/03/13 08:35:58;;;;;;;24.73;15.60;;;;;;;10.90;58.87;101225.06;5034958;28;20026;-58
2022/03/13 08:38:24;;;;;;;24.02;15.80;;;;;;;10.92;59.35;101216.28;5035038;28;20417;-63
2022/03/13 08:40:49;;;;;;;22.52;15.63;;;;;;;11.10;58.33;101218.72;5035006;28;20042;-59
2022/03/13 08:43:14;;;;;;;22.95;15.05;;;;;;;11.26;58.06;101218.56;5034736;28;20033;-59
2022/03/13 08:45:40;;;;;;;22.08;15.75;;;;;;;11.41;57.59;101219.31;5034721;28;20033;-60
2022/03/13 08:48:05;;;;;;;24.05;14.90;;;;;;;11.47;56.38;101220.97;5034472;28;20447;-60
2022/03/13 08:50:32;;;;;;;30.70;15.70;;;;;;;11.58;56.09;101215.63;5034634;28;20037;-59
2022/03/13 08:52:58;;;;;;;22.27;14.98;;;;;;;11.79;54.92;101208.38;5034879;28;20032;-59
2022/03/13 08:55:24;;;;;;;24.63;15.43;;;;;;;12.01;55.79;101216.84;5034678;28;20444;-59
2022/03/13 08:57:49;;;;;;;24.13;15.68;;;;;;;12.14;55.57;101210.53;5038251;28;20036;-62
2022/03/13 09:00:16;;;;;;;23.27;15.63;;;;;;;12.31;55.66;101205.06;5037894;28;20047;-59
2022/03/13 09:02:45;;;;;;;25.80;15.10;;;;;;;12.45;53.99;101203.13;5037443;28;20083;-58
2022/03/13 09:05:11;;;;;;;23.38;15.68;;;;;;;12.63;53.81;101198.47;5038162;28;20088;-59
2022/03/13 09:07:37;;;;;;;24.40;15.45;;;;;;;12.82;54.56;101195.47;5035332;28;20432;-59
2022/03/13 09:10:11;;;;;;;24.02;17.05;;;;;;;12.94;52.80;101204.94;5038041;28;20026;-58
2022/03/13 09:12:37;;;;;;;25.08;16.40;;;;;;;12.96;51.46;101208.41;5035040;28;20459;-59
2022/03/13 09:15:04;;;;;;;21.08;15.10;;;;;;;13.10;52.48;101209.03;5037717;28;20025;-59
2022/03/13 09:17:29;;;;;;;22.00;15.15;;;;;;;13.27;51.41;101194.75;5037820;28;20037;-59
2022/03/13 09:19:56;;;;;;;23.55;15.80;;;;;;;13.32;50.87;101199.03;5037966;28;20120;-59
2022/03/13 09:22:28;;;;;;;23.70;16.05;;;;;;;13.42;51.19;101191.81;5037927;28;20025;-59
2022/03/13 09:24:57;;;;;;;23.20;15.98;;;;;;;13.53;50.74;101179.31;5037590;28;20391;-59
2022/03/13 09:27:22;;;;;;;21.73;15.50;;;;;;;13.63;49.78;101188.75;5037410;28;20021;-59
2022/03/13 09:29:47;;;;;;;26.45;16.13;;;;;;;13.57;50.17;101192.38;5037394;28;20321;-58
2022/03/13 09:32:13;;;;;;;25.38;15.30;;;;;;;13.61;49.74;101187.06;5038055;28;20029;-61
2022/03/13 09:34:38;;;;;;;21.77;15.57;;;;;;;13.60;49.77;101188.81;5036082;28;20368;-58
2022/03/13 09:37:03;;;;;;;22.13;15.18;;;;;;;13.72;49.91;101191.19;5038157;28;20033;-59
2022/03/13 09:39:30;;;;;;;23.50;15.55;;;;;;;13.93;50.35;101184.59;5041260;28;20057;-59
2022/03/13 09:41:56;;;;;;;23.65;16.40;;;;;;;13.96;49.04;101181.06;5037483;28;20038;-59
2022/03/13 09:44:21;;;;;;;23.20;15.57;;;;;;;14.21;49.69;101182.22;5037154;28;20072;-61
2022/03/13 09:46:47;;;;;;;21.42;14.32;;;;;;;14.62;49.20;101189.19;5037275;28;20025;-59
2022/03/13 09:49:15;;;;;;;21.23;14.05;;;;;;;14.71;48.13;101190.75;5037352;28;20025;-59
2022/03/13 09:51:41;;;;;;;20.45;14.25;;;;;;;14.83;47.39;101183.38;5034758;28;20388;-58
2022/03/13 09:54:06;;;;;;;20.77;14.18;;;;;;;14.94;46.81;101175.19;5036991;28;20025;-58
2022/03/13 09:56:33;;;;;;;19.88;14.05;;;;;;;14.94;47.34;101181.31;5036986;28;20349;-58
2022/03/13 09:58:58;;;;;;;21.52;14.32;;;;;;;14.92;47.19;101180.50;5037476;28;20332;-59
2022/03/13 10:01:23;;;;;;;18.95;12.73;;;;;;;15.00;46.34;101169.75;5037083;28;20033;-58
2022/03/13 10:03:49;;;;;;;18.65;13.43;;;;;;;14.93;46.85;101176.94;5037035;28;20459;-59
2022/03/13 10:06:14;;;;;;;19.35;13.98;;;;;;;15.05;47.49;101186.34;5036850;28;20025;-60
2022/03/13 10:08:39;;;;;;;18.73;13.20;;;;;;;15.13;46.42;101172.94;5035915;28;20045;-59
2022/03/13 10:11:06;;;;;;;17.73;12.18;;;;;;;15.07;46.15;101179.22;5036685;28;20453;-59
2022/03/13 10:13:36;;;;;;;17.90;11.68;;;;;;;15.15;47.19;101173.75;5037137;28;20034;-59
2022/03/13 10:16:03;;;;;;;16.70;11.60;;;;;;;15.32;47.05;101179.44;5036561;28;20085;-59
2022/03/13 10:18:28;;;;;;;16.15;11.57;;;;;;;15.44;46.58;101176.44;5036368;28;20045;-59
2022/03/13 10:20:54;;;;;;;17.23;12.55;;;;;;;15.43;45.70;101173.84;5035584;28;20048;-59
2022/03/13 10:23:20;;;;;;;18.35;12.07;;;;;;;15.25;45.74;101156.78;5036638;28;20040;-59
2022/03/13 10:25:48;;;;;;;16.10;11.55;;;;;;;15.40;45.77;101159.00;5036270;28;20048;-57
2022/03/13 10:28:31;;;;;;;17.60;12.70;;;;;;;15.50;46.33;101160.47;5036233;28;20033;-58
2022/03/13 10:31:02;;;;;;;17.23;11.93;;;;;;;15.53;45.79;101154.25;5036528;28;20032;-59
2022/03/13 10:33:43;;;;;;;18.70;12.60;;;;;;;15.77;45.85;101150.91;5036308;28;20036;-57
2022/03/13 10:36:14;;;;;;;16.48;12.07;;;;;;;15.74;45.43;101144.88;5036308;28;20044;-57
2022/03/13 10:38:40;;;;;;;18.73;12.70;;;;;;;15.80;45.68;101150.81;5036070;28;20436;-58
2022/03/13 10:41:10;;;;;;;23.02;12.80;;;;;;;15.61;45.07;101149.63;5035978;28;20119;-58
2022/03/13 10:43:45;;;;;;;18.35;13.13;;;;;;;15.56;45.59;101151.56;5036902;28;20033;-58
2022/03/13 10:46:35;;;;;;;19.25;13.45;;;;;;;15.50;45.78;101144.63;5036562;28;20052;-58
2022/03/13 10:49:04;;;;;;;17.35;12.80;;;;;;;15.68;45.39;101145.03;5036176;28;20041;-59
2022/03/13 10:51:33;;;;;;;17.00;12.00;;;;;;;15.68;45.26;101145.91;5035926;28;20026;-58
2022/03/13 10:54:00;;;;;;;18.58;12.57;;;;;;;15.55;44.75;101149.78;5036590;28;20041;-58
2022/03/13 10:56:27;;;;;;;16.90;12.63;;;;;;;15.42;45.43;101143.97;5036384;28;20344;-57
2022/03/13 10:58:52;;;;;;;16.38;12.00;;;;;;;15.42;45.87;101140.47;5036196;28;20025;-58
2022/03/13 11:01:21;;;;;;;17.17;12.00;;;;;;;15.39;45.68;101138.81;5035444;28;20039;-58
2022/03/13 11:03:54;;;;;;;15.85;11.82;;;;;;;15.57;45.70;101148.00;5035494;28;20030;-58
2022/03/13 11:06:21;;;;;;;15.75;10.70;;;;;;;15.75;44.58;101130.78;5033444;28;20084;-58
2022/03/13 11:08:48;;;;;;;16.10;11.10;;;;;;;15.88;44.57;101137.41;5035641;28;20040;-57
2022/03/13 11:11:16;;;;;;;17.73;12.13;;;;;;;15.97;44.03;101132.69;5035736;28;20029;-56
2022/03/13 11:13:42;;;;;;;15.50;10.93;;;;;;;15.93;44.29;101117.00;5035467;28;20372;-57